Time;durP1;ratioP1;P1;durP2;ratioP2;P2;SDS_P1;SDS_P2;PMS_P1;PMS_P2;Temp;Humidity;BMP_temperature;BMP_pressure;BME280_temperature;BME280_humidity;BME280_pressure;Samples;Min_cycle;Max_cycle;Signal;HPM_P1;HPM_P2
2023/09/18 00:01:55;;;;;;;76.90;11.77;;;21.50;99.90;;;;;;4988709;28;20427;-79
2023/09/18 00:04:21;;;;;;;75.97;11.80;;;21.50;99.90;;;;;;4989278;28;20198;-79
2023/09/18 00:06:46;;;;;;;74.40;12.93;;;21.50;99.90;;;;;;4989569;28;20191;-80
2023/09/18 00:09:13;;;;;;;74.40;12.30;;;21.50;99.90;;;;;;4988657;28;20211;-80
2023/09/18 00:11:40;;;;;;;77.27;13.10;;;21.50;99.90;;;;;;4989077;28;20219;-79
2023/09/18 00:14:07;;;;;;;73.57;11.80;;;21.50;99.90;;;;;;4988847;28;20403;-79
2023/09/18 00:16:32;;;;;;;75.93;11.70;;;21.50;99.90;;;;;;4989123;28;20492;-79
2023/09/18 00:18:58;;;;;;;73.87;13.20;;;21.40;99.90;;;;;;4989070;28;20936;-79
2023/09/18 00:21:25;;;;;;;77.00;14.07;;;21.40;99.90;;;;;;4946897;28;1225088;-79
2023/09/18 00:23:51;;;;;;;74.40;10.53;;;21.40;99.90;;;;;;4989775;28;20156;-80
2023/09/18 00:26:17;;;;;;;76.30;12.67;;;21.40;99.90;;;;;;4971447;28;20456;-79
2023/09/18 00:28:43;;;;;;;75.53;12.60;;;21.40;99.90;;;;;;4988767;28;20399;-80
2023/09/18 00:31:09;;;;;;;74.07;13.87;;;21.40;99.90;;;;;;4989174;28;20250;-79
2023/09/18 00:33:35;;;;;;;79.30;13.17;;;21.30;99.90;;;;;;4989195;28;20164;-80
2023/09/18 00:36:01;;;;;;;76.17;11.57;;;21.30;99.90;;;;;;4985585;28;20411;-79
2023/09/18 00:38:27;;;;;;;76.50;13.93;;;21.30;99.90;;;;;;4982042;28;20860;-79
2023/09/18 00:40:52;;;;;;;74.87;12.87;;;21.30;99.90;;;;;;4982799;28;20543;-79
2023/09/18 00:43:18;;;;;;;74.60;11.47;;;21.30;99.90;;;;;;4982747;28;20164;-79
2023/09/18 00:45:48;;;;;;;74.63;11.30;;;21.30;99.90;;;;;;4983083;28;20211;-78
2023/09/18 00:48:15;;;;;;;75.13;11.60;;;21.40;99.90;;;;;;4983040;28;20756;-79
2023/09/18 00:50:43;;;;;;;77.50;12.20;;;21.30;99.90;;;;;;4982763;28;20427;-80
2023/09/18 00:53:10;;;;;;;79.60;12.40;;;21.30;99.90;;;;;;4965757;28;20955;-79
2023/09/18 00:55:37;;;;;;;75.10;11.20;;;21.30;99.90;;;;;;4982852;28;20418;-79
2023/09/18 00:58:04;;;;;;;73.60;13.07;;;21.20;99.90;;;;;;4983074;28;20988;-79
2023/09/18 01:00:30;;;;;;;77.07;12.17;;;21.20;99.90;;;;;;4982609;28;20446;-79
2023/09/18 01:02:56;;;;;;;75.80;14.20;;;21.20;99.90;;;;;;4982703;28;20431;-79
2023/09/18 01:05:21;;;;;;;79.77;13.83;;;21.10;99.90;;;;;;4981843;28;20192;-79
2023/09/18 01:07:47;;;;;;;74.87;12.27;;;21.10;99.90;;;;;;4965532;28;20410;-79
2023/09/18 01:10:16;;;;;;;75.30;12.20;;;21.10;99.90;;;;;;4983264;28;20172;-79
2023/09/18 01:12:56;;;;;;;73.10;11.00;;;21.20;99.90;;;;;;4982615;28;20187;-79
2023/09/18 01:15:30;;;;;;;73.57;11.13;;;21.20;99.90;;;;;;4983546;28;20400;-79
2023/09/18 01:17:56;;;;;;;72.20;11.13;;;21.10;99.90;;;;;;4983198;28;20832;-79
2023/09/18 01:20:25;;;;;;;73.97;14.63;;;21.10;99.90;;;;;;4965192;28;20419;-79
2023/09/18 01:22:51;;;;;;;77.73;14.67;;;21.00;99.90;;;;;;4989529;28;20208;-80
2023/09/18 01:25:16;;;;;;;74.50;14.17;;;21.00;99.90;;;;;;4990113;28;20545;-79
2023/09/18 01:27:42;;;;;;;78.77;16.20;;;21.00;99.90;;;;;;4991781;28;20171;-79
2023/09/18 01:30:08;;;;;;;80.63;15.07;;;21.00;99.90;;;;;;4991833;28;20164;-80
2023/09/18 01:32:36;;;;;;;76.30;16.47;;;20.90;99.90;;;;;;4991580;28;20195;-79
2023/09/18 01:35:05;;;;;;;76.37;15.30;;;20.90;99.90;;;;;;4992149;28;20411;-79
2023/09/18 01:37:32;;;;;;;76.83;16.67;;;20.90;99.90;;;;;;4991720;28;20407;-80
2023/09/18 01:39:59;;;;;;;81.10;16.67;;;20.80;99.90;;;;;;4992161;28;20430;-80
2023/09/18 01:42:29;;;;;;;77.40;16.60;;;20.90;99.90;;;;;;4990541;28;20502;-79
2023/09/18 01:44:55;;;;;;;78.17;15.43;;;20.80;99.90;;;;;;4974275;28;20443;-79
2023/09/18 01:47:26;;;;;;;76.87;15.50;;;20.90;99.90;;;;;;4992029;28;20494;-79
2023/09/18 01:49:52;;;;;;;75.20;17.00;;;20.80;99.90;;;;;;4992339;28;20380;-80
2023/09/18 01:52:18;;;;;;;78.57;15.27;;;20.80;99.90;;;;;;4991708;28;20441;-79
2023/09/18 01:54:44;;;;;;;76.20;16.07;;;20.80;99.90;;;;;;4991875;28;20168;-80
2023/09/18 01:57:09;;;;;;;78.57;15.83;;;20.90;99.90;;;;;;4991517;28;20163;-79
2023/09/18 01:59:35;;;;;;;74.60;14.07;;;20.90;99.90;;;;;;4992177;28;20403;-79
2023/09/18 02:02:03;;;;;;;73.97;12.53;;;20.90;99.90;;;;;;4991938;28;20183;-79
2023/09/18 02:04:29;;;;;;;77.80;13.73;;;20.90;99.90;;;;;;4990909;28;20191;-80
2023/09/18 02:06:57;;;;;;;75.77;11.97;;;20.90;99.90;;;;;;4989062;28;20399;-79
2023/09/18 02:09:22;;;;;;;77.47;16.67;;;20.90;99.90;;;;;;4985379;28;20396;-81
2023/09/18 02:11:48;;;;;;;79.43;13.80;;;21.00;99.90;;;;;;4984761;28;20427;-81
2023/09/18 02:14:14;;;;;;;82.73;16.80;;;20.90;99.90;;;;;;4983069;28;20668;-81
2023/09/18 02:16:43;;;;;;;74.73;14.60;;;21.00;99.90;;;;;;4984628;28;20778;-81
2023/09/18 02:19:09;;;;;;;74.20;15.77;;;20.90;99.90;;;;;;4984436;28;20417;-81
2023/09/18 02:21:35;;;;;;;74.77;13.90;;;21.00;99.90;;;;;;4966601;28;20455;-81
2023/09/18 02:24:01;;;;;;;74.63;15.67;;;21.00;99.90;;;;;;4967027;28;20407;-81
2023/09/18 02:26:28;;;;;;;76.07;15.07;;;21.00;99.90;;;;;;4967549;28;20411;-81
2023/09/18 02:28:54;;;;;;;75.53;17.90;;;21.00;99.90;;;;;;4967058;28;20462;-79
2023/09/18 02:31:21;;;;;;;76.67;17.67;;;21.00;99.90;;;;;;4984335;28;20432;-79
2023/09/18 02:33:48;;;;;;;74.97;16.33;;;21.00;99.90;;;;;;4983518;28;20399;-79
2023/09/18 02:36:14;;;;;;;75.00;19.40;;;21.00;99.90;;;;;;4982575;28;20829;-79
2023/09/18 02:38:39;;;;;;;80.37;24.97;;;21.00;99.90;;;;;;4982299;28;20407;-79
2023/09/18 02:41:05;;;;;;;80.47;29.40;;;20.90;99.90;;;;;;4981492;28;20430;-78
2023/09/18 02:43:31;;;;;;;80.73;28.60;;;20.90;99.90;;;;;;4980612;28;20233;-78
2023/09/18 02:45:57;;;;;;;80.37;26.47;;;21.00;99.90;;;;;;4980665;28;20203;-78
2023/09/18 02:48:22;;;;;;;82.30;23.90;;;21.00;99.90;;;;;;4980935;28;20170;-78
2023/09/18 02:50:48;;;;;;;84.47;27.53;;;21.10;99.90;;;;;;4980672;28;20183;-78
2023/09/18 02:53:18;;;;;;;86.60;28.33;;;21.00;99.90;;;;;;4983430;28;20180;-78
2023/09/18 02:55:44;;;;;;;86.17;31.87;;;21.00;99.90;;;;;;4984850;28;20174;-78
2023/09/18 02:58:10;;;;;;;80.30;29.70;;;21.00;99.90;;;;;;4965949;28;20483;-78
2023/09/18 03:00:43;;;;;;;84.33;31.77;;;21.10;99.90;;;;;;4983573;28;20538;-78
2023/09/18 03:03:09;;;;;;;82.37;30.57;;;21.00;99.90;;;;;;4984739;28;20433;-78
2023/09/18 03:05:34;;;;;;;82.90;33.27;;;21.00;99.90;;;;;;4983223;28;20525;-79
2023/09/18 03:08:00;;;;;;;82.47;36.37;;;21.00;99.90;;;;;;4985500;28;20462;-78
2023/09/18 03:10:26;;;;;;;83.60;36.07;;;20.90;99.90;;;;;;4967869;28;20178;-79
2023/09/18 03:12:51;;;;;;;89.20;41.63;;;20.90;99.90;;;;;;4984743;28;20192;-79
2023/09/18 03:15:17;;;;;;;88.83;33.47;;;20.90;99.90;;;;;;4984431;28;20164;-79
2023/09/18 03:17:43;;;;;;;82.80;36.73;;;20.90;99.90;;;;;;4967782;28;20187;-79
2023/09/18 03:20:09;;;;;;;86.53;36.60;;;20.90;99.90;;;;;;4984563;28;20702;-79
2023/09/18 03:22:35;;;;;;;81.20;31.73;;;20.90;99.90;;;;;;4985656;28;20207;-78
2023/09/18 03:25:01;;;;;;;83.87;29.23;;;20.80;99.90;;;;;;4986872;28;20442;-79
2023/09/18 03:27:28;;;;;;;85.77;31.53;;;20.70;99.90;;;;;;4968542;28;20418;-79
2023/09/18 03:29:59;;;;;;;87.53;30.43;;;20.70;99.90;;;;;;4987306;28;20194;-79
2023/09/18 03:32:25;;;;;;;86.10;30.30;;;20.60;99.90;;;;;;4987698;28;20868;-79
2023/09/18 03:34:51;;;;;;;80.30;30.83;;;20.60;99.90;;;;;;4986448;28;20415;-79
2023/09/18 03:37:17;;;;;;;80.57;27.80;;;20.70;99.90;;;;;;4988088;28;20160;-79
2023/09/18 03:39:43;;;;;;;79.70;30.73;;;20.70;99.90;;;;;;4985594;28;20413;-79
2023/09/18 03:42:09;;;;;;;81.00;30.90;;;20.70;99.90;;;;;;4984528;28;20188;-79
2023/09/18 03:44:35;;;;;;;83.93;33.23;;;20.70;99.90;;;;;;4984908;28;20450;-79
2023/09/18 03:47:01;;;;;;;86.20;35.67;;;20.70;99.90;;;;;;4968540;28;20588;-79
2023/09/18 03:49:28;;;;;;;83.87;32.73;;;20.80;99.90;;;;;;4967908;28;20407;-79
2023/09/18 03:51:53;;;;;;;81.17;38.90;;;20.70;99.90;;;;;;4984413;28;20699;-79
2023/09/18 03:54:19;;;;;;;81.90;35.90;;;20.70;99.90;;;;;;4985577;28;20439;-79
2023/09/18 03:56:46;;;;;;;86.83;37.07;;;20.60;99.90;;;;;;4984947;28;20172;-79
2023/09/18 03:59:12;;;;;;;82.90;35.47;;;20.70;99.90;;;;;;4969009;28;20221;-79
2023/09/18 04:01:38;;;;;;;84.20;33.20;;;20.60;99.90;;;;;;4984533;28;20535;-79
2023/09/18 04:04:03;;;;;;;82.60;34.57;;;20.70;99.90;;;;;;4983465;28;20446;-79
2023/09/18 04:06:43;;;;;;;81.90;32.50;;;20.70;99.90;;;;;;4984367;28;20645;-79
2023/09/18 04:09:09;;;;;;;86.23;35.93;;;20.70;99.90;;;;;;4982784;28;20167;-79
2023/09/18 04:11:35;;;;;;;81.23;32.37;;;20.70;99.90;;;;;;4984143;28;20429;-79
2023/09/18 04:14:03;;;;;;;85.13;32.60;;;20.60;99.90;;;;;;4984376;28;20160;-79
2023/09/18 04:16:30;;;;;;;83.73;33.80;;;20.60;99.90;;;;;;4967139;28;20415;-79
2023/09/18 04:18:57;;;;;;;91.70;33.83;;;20.60;99.90;;;;;;4984636;28;20414;-79
2023/09/18 04:21:23;;;;;;;86.10;34.93;;;20.60;99.90;;;;;;4984568;28;21014;-79
2023/09/18 04:23:55;;;;;;;82.33;36.60;;;20.60;99.90;;;;;;4986087;28;20392;-79
2023/09/18 04:26:21;;;;;;;80.37;33.80;;;20.60;99.90;;;;;;4989496;28;20387;-79
2023/09/18 04:28:47;;;;;;;83.37;32.47;;;20.60;99.90;;;;;;4988896;28;20431;-79
2023/09/18 04:31:13;;;;;;;82.07;34.97;;;20.60;99.90;;;;;;4988671;28;20419;-79
2023/09/18 04:33:48;;;;;;;81.80;30.63;;;20.50;99.90;;;;;;4989570;28;20407;-79
2023/09/18 04:36:13;;;;;;;84.77;33.80;;;20.60;99.90;;;;;;4988650;28;20412;-79
2023/09/18 04:38:39;;;;;;;82.30;30.70;;;20.60;99.90;;;;;;4986555;28;20470;-81
2023/09/18 04:41:09;;;;;;;83.87;31.77;;;20.50;99.90;;;;;;4985276;28;20203;-81
2023/09/18 04:43:34;;;;;;;84.37;34.57;;;20.50;99.90;;;;;;4985322;28;20168;-81
2023/09/18 04:46:04;;;;;;;81.90;33.23;;;20.50;99.90;;;;;;4985259;28;20457;-81
2023/09/18 04:48:29;;;;;;;83.37;31.03;;;20.40;99.90;;;;;;4983895;28;20167;-81
2023/09/18 04:50:56;;;;;;;82.30;29.90;;;20.40;99.90;;;;;;4985029;28;20411;-81
2023/09/18 04:53:21;;;;;;;83.50;33.27;;;20.40;99.90;;;;;;4985013;28;20179;-81
2023/09/18 04:55:49;;;;;;;85.60;30.67;;;20.40;99.90;;;;;;4985612;28;20411;-81
2023/09/18 04:58:15;;;;;;;86.00;31.80;;;20.40;99.90;;;;;;4986170;28;20219;-81
2023/09/18 05:00:41;;;;;;;85.90;31.23;;;20.30;99.90;;;;;;4988483;28;20411;-81
2023/09/18 05:03:08;;;;;;;80.40;29.33;;;20.40;99.90;;;;;;4989194;28;20431;-81
2023/09/18 05:05:34;;;;;;;82.63;32.20;;;20.40;99.90;;;;;;4988902;28;20203;-81
2023/09/18 05:08:07;;;;;;;83.07;29.17;;;20.40;99.90;;;;;;4989014;28;20407;-81
2023/09/18 05:10:36;;;;;;;93.10;29.13;;;20.40;99.90;;;;;;4987701;28;20482;-81
2023/09/18 05:13:02;;;;;;;84.50;29.40;;;20.40;99.90;;;;;;4985356;28;20419;-81
2023/09/18 05:15:32;;;;;;;86.30;29.03;;;20.40;99.90;;;;;;4985315;28;20447;-81
2023/09/18 05:17:58;;;;;;;80.83;26.10;;;20.40;99.90;;;;;;4968825;28;20421;-79
2023/09/18 05:20:26;;;;;;;82.90;30.33;;;20.40;99.90;;;;;;4988307;28;20411;-79
2023/09/18 05:22:55;;;;;;;82.57;30.70;;;20.40;99.90;;;;;;4987312;28;20821;-81
2023/09/18 05:25:26;;;;;;;81.47;29.70;;;20.40;99.90;;;;;;4988405;28;20478;-81
2023/09/18 05:27:56;;;;;;;82.50;32.47;;;20.30;99.90;;;;;;4987330;28;20499;-81
2023/09/18 05:30:34;;;;;;;84.87;31.80;;;20.30;99.90;;;;;;4988552;28;20396;-81
2023/09/18 05:33:04;;;;;;;87.10;35.70;;;20.30;99.90;;;;;;4986993;28;20450;-81
2023/09/18 05:35:51;;;;;;;78.90;29.73;;;20.30;99.90;;;;;;4988114;28;20396;-81
2023/09/18 05:38:17;;;;;;;80.40;28.63;;;20.40;99.90;;;;;;4984642;28;20399;-81
2023/09/18 05:40:44;;;;;;;86.77;31.33;;;20.40;99.90;;;;;;4985371;28;20391;-80
2023/09/18 05:43:11;;;;;;;89.90;28.43;;;20.40;99.90;;;;;;4984406;28;20781;-80
2023/09/18 05:45:38;;;;;;;82.17;28.80;;;20.40;99.90;;;;;;4980476;28;20461;-78
2023/09/18 05:48:04;;;;;;;83.47;29.70;;;20.40;99.90;;;;;;4964132;28;20407;-78
2023/09/18 05:50:35;;;;;;;86.33;33.80;;;20.40;99.90;;;;;;4962390;28;20418;-78
2023/09/18 05:53:03;;;;;;;81.37;28.80;;;20.40;99.90;;;;;;4979771;28;20422;-78
2023/09/18 05:55:30;;;;;;;80.07;26.30;;;20.40;99.90;;;;;;4980038;28;20778;-78
2023/09/18 05:57:57;;;;;;;85.83;29.73;;;20.40;99.90;;;;;;4982665;28;20462;-78
2023/09/18 06:00:23;;;;;;;81.93;28.87;;;20.40;99.90;;;;;;4981788;28;20494;-79
2023/09/18 06:02:51;;;;;;;82.00;27.77;;;20.40;99.90;;;;;;4981966;28;20466;-78
2023/09/18 06:05:17;;;;;;;81.90;33.53;;;20.40;99.90;;;;;;4982699;28;20812;-79
2023/09/18 06:07:44;;;;;;;83.67;31.90;;;20.30;99.90;;;;;;4981528;28;20407;-78
2023/09/18 06:10:10;;;;;;;81.17;31.47;;;20.30;99.90;;;;;;4982483;28;20399;-78
2023/09/18 06:12:39;;;;;;;81.97;32.63;;;20.40;99.90;;;;;;4981314;28;20482;-78
2023/09/18 06:15:11;;;;;;;85.47;32.63;;;20.40;99.90;;;;;;4981946;28;20422;-78
2023/09/18 06:17:42;;;;;;;85.40;36.90;;;20.50;99.90;;;;;;4965141;28;20422;-78
2023/09/18 06:20:18;;;;;;;84.53;34.33;;;20.50;99.90;;;;;;4980359;28;20474;-78
2023/09/18 06:22:43;;;;;;;80.50;31.67;;;20.50;99.90;;;;;;4976434;28;20520;-77
2023/09/18 06:25:13;;;;;;;78.70;24.70;;;20.50;99.90;;;;;;4959209;28;20462;-77
2023/09/18 06:27:38;;;;;;;70.37;13.07;;;20.60;99.90;;;;;;4976638;28;20160;-77
2023/09/18 06:30:07;;;;;;;80.50;14.07;;;20.60;99.90;;;;;;4976680;28;20404;-77
2023/09/18 06:32:33;;;;;;;73.30;13.43;;;20.60;99.90;;;;;;4976654;28;20183;-78
2023/09/18 06:34:59;;;;;;;71.17;11.90;;;20.70;99.90;;;;;;4976311;28;20414;-77
2023/09/18 06:37:25;;;;;;;72.47;11.17;;;20.80;99.90;;;;;;4976281;28;20226;-77
2023/09/18 06:39:51;;;;;;;74.07;16.23;;;20.80;99.90;;;;;;4976169;28;20411;-77
2023/09/18 06:42:17;;;;;;;72.17;11.63;;;20.80;99.90;;;;;;4976423;28;20223;-78
2023/09/18 06:44:46;;;;;;;72.97;12.10;;;20.80;99.90;;;;;;4976255;28;20494;-77
2023/09/18 06:47:12;;;;;;;72.17;10.60;;;20.80;99.90;;;;;;4976353;28;20387;-78
2023/09/18 06:49:37;;;;;;;75.20;10.30;;;20.80;99.90;;;;;;4976203;28;20408;-78
2023/09/18 06:52:04;;;;;;;71.93;9.60;;;20.90;99.90;;;;;;4976020;28;20460;-77
2023/09/18 06:54:30;;;;;;;75.27;9.30;;;20.90;99.90;;;;;;4958651;28;20569;-78
2023/09/18 06:56:56;;;;;;;73.40;10.30;;;20.90;99.90;;;;;;4976028;28;20453;-78
2023/09/18 06:59:22;;;;;;;76.60;8.63;;;21.00;99.90;;;;;;4976440;28;20183;-78
2023/09/18 07:01:47;;;;;;;76.73;9.87;;;21.10;99.90;;;;;;4976639;28;20415;-78
2023/09/18 07:04:13;;;;;;;70.30;8.00;;;21.00;99.90;;;;;;4976951;28;20196;-78
2023/09/18 07:06:40;;;;;;;72.37;7.67;;;21.00;99.90;;;;;;4958929;28;20183;-78
2023/09/18 07:09:06;;;;;;;69.27;7.70;;;21.00;99.90;;;;;;4976641;28;20250;-78
2023/09/18 07:11:33;;;;;;;72.40;7.07;;;20.90;99.90;;;;;;4976351;28;20940;-78
2023/09/18 07:13:59;;;;;;;75.90;7.67;;;21.00;99.90;;;;;;4976111;28;20709;-78
2023/09/18 07:16:25;;;;;;;78.23;9.20;;;21.00;99.90;;;;;;4975959;28;20487;-78
2023/09/18 07:18:50;;;;;;;69.80;9.17;;;21.10;99.90;;;;;;4958697;28;20506;-78
2023/09/18 07:21:16;;;;;;;72.63;9.40;;;21.10;99.90;;;;;;4976005;28;20462;-78
2023/09/18 07:23:42;;;;;;;68.37;7.87;;;21.20;99.90;;;;;;4975624;28;20169;-78
2023/09/18 07:26:07;;;;;;;72.07;9.57;;;21.20;99.90;;;;;;4975741;28;20202;-78
2023/09/18 07:28:33;;;;;;;70.67;10.90;;;21.20;99.90;;;;;;4975910;28;20217;-78
2023/09/18 07:31:09;;;;;;;71.77;12.77;;;21.30;99.90;;;;;;4975681;28;20164;-77
2023/09/18 07:33:34;;;;;;;75.70;14.13;;;21.30;99.90;;;;;;4975664;28;20167;-77
2023/09/18 07:36:01;;;;;;;77.57;14.77;;;21.40;99.90;;;;;;4976037;28;20819;-77
2023/09/18 07:38:26;;;;;;;71.70;14.70;;;21.30;99.90;;;;;;4975374;28;20171;-78
2023/09/18 07:40:52;;;;;;;71.20;13.37;;;21.40;99.90;;;;;;4958002;28;20865;-78
2023/09/18 07:43:18;;;;;;;72.30;16.73;;;21.40;99.90;;;;;;4975487;28;20660;-78
2023/09/18 07:45:43;;;;;;;73.40;13.40;;;21.40;99.90;;;;;;4975443;28;20188;-78
2023/09/18 07:48:09;;;;;;;72.20;15.70;;;21.50;99.90;;;;;;4976125;28;20641;-78
2023/09/18 07:50:35;;;;;;;72.00;15.13;;;21.50;99.90;;;;;;4975470;28;20171;-78
2023/09/18 07:53:02;;;;;;;73.10;14.50;;;21.50;99.90;;;;;;4975319;28;20180;-78
2023/09/18 07:55:29;;;;;;;71.70;14.63;;;21.40;99.90;;;;;;4958003;28;20423;-78
2023/09/18 07:57:54;;;;;;;71.70;14.20;;;21.60;99.90;;;;;;4957862;28;20487;-78
2023/09/18 08:00:22;;;;;;;72.33;15.17;;;21.50;99.90;;;;;;4975294;28;21043;-78
2023/09/18 08:03:00;;;;;;;71.57;14.30;;;21.40;99.90;;;;;;4975334;28;20246;-78
2023/09/18 08:05:31;;;;;;;71.57;13.70;;;21.50;99.90;;;;;;4975066;28;20443;-78
2023/09/18 08:07:58;;;;;;;70.67;14.57;;;21.40;99.90;;;;;;4975586;28;20483;-77
2023/09/18 08:10:25;;;;;;;73.07;15.87;;;21.40;99.90;;;;;;4975149;28;20486;-77
2023/09/18 08:12:52;;;;;;;72.50;14.67;;;21.50;99.90;;;;;;4957738;28;20442;-78
2023/09/18 08:15:20;;;;;;;70.87;13.90;;;21.50;99.90;;;;;;4974835;28;20415;-78
2023/09/18 08:17:48;;;;;;;70.30;13.90;;;21.50;99.90;;;;;;4957589;28;20518;-78
2023/09/18 08:20:14;;;;;;;75.00;17.40;;;21.60;99.90;;;;;;4975004;28;20426;-77
2023/09/18 08:22:40;;;;;;;73.20;18.47;;;21.70;99.30;;;;;;4974673;28;20816;-77
2023/09/18 08:25:13;;;;;;;72.83;19.93;;;21.80;99.90;;;;;;4974692;28;20451;-78
2023/09/18 08:27:47;;;;;;;74.53;23.63;;;21.90;98.20;;;;;;4974678;28;20486;-77
2023/09/18 08:30:17;;;;;;;77.10;29.13;;;21.90;96.70;;;;;;4974602;28;20471;-77
2023/09/18 08:32:43;;;;;;;76.97;29.93;;;21.80;90.10;;;;;;4974359;28;20422;-77
2023/09/18 08:35:09;;;;;;;83.60;37.73;;;21.70;99.90;;;;;;4976344;28;20497;-77
2023/09/18 08:37:35;;;;;;;83.50;37.97;;;21.90;99.90;;;;;;4978571;28;20411;-77
2023/09/18 08:40:00;;;;;;;77.57;32.83;;;22.00;99.90;;;;;;4961402;28;20263;-77
2023/09/18 08:42:34;;;;;;;82.60;39.73;;;21.80;99.90;;;;;;4978392;28;20506;-77
2023/09/18 08:45:01;;;;;;;76.40;29.33;;;21.90;99.90;;;;;;4978365;28;20825;-77
2023/09/18 08:47:28;;;;;;;77.17;34.40;;;21.80;99.90;;;;;;4978536;28;20746;-77
2023/09/18 08:49:55;;;;;;;85.33;34.93;;;21.90;99.90;;;;;;4978605;28;20410;-78
2023/09/18 08:52:22;;;;;;;81.97;37.47;;;21.90;99.90;;;;;;4978867;28;20454;-78
2023/09/18 08:54:49;;;;;;;83.00;37.07;;;22.20;99.90;;;;;;4978606;28;20474;-78
2023/09/18 08:57:15;;;;;;;80.07;25.07;;;22.30;99.90;;;;;;4978448;28;20821;-78
2023/09/18 08:59:42;;;;;;;78.60;24.87;;;22.30;99.90;;;;;;4978685;28;20403;-78
2023/09/18 09:02:11;;;;;;;74.40;23.27;;;22.30;99.90;;;;;;4978888;28;20202;-78
2023/09/18 09:04:37;;;;;;;71.90;15.60;;;22.50;99.90;;;;;;4978628;28;20450;-78
2023/09/18 09:07:03;;;;;;;73.40;14.90;;;22.40;99.90;;;;;;4979247;28;20406;-78
2023/09/18 09:09:30;;;;;;;72.10;15.37;;;22.50;99.90;;;;;;4979294;28;20775;-78
2023/09/18 09:11:56;;;;;;;74.27;15.10;;;22.40;99.90;;;;;;4978446;28;20493;-78
2023/09/18 09:14:27;;;;;;;73.40;14.23;;;22.30;99.90;;;;;;4979281;28;20415;-78
2023/09/18 09:16:54;;;;;;;75.03;13.60;;;22.40;99.90;;;;;;4961451;28;20782;-78
2023/09/18 09:19:32;;;;;;;72.70;15.30;;;22.30;99.90;;;;;;4978312;28;20403;-78
2023/09/18 09:22:00;;;;;;;71.47;14.23;;;22.30;99.90;;;;;;4978655;28;20454;-78
2023/09/18 09:24:40;;;;;;;71.57;16.47;;;22.30;99.90;;;;;;4978496;28;20855;-77
2023/09/18 09:27:06;;;;;;;69.87;12.60;;;22.40;99.90;;;;;;4978227;28;20453;-78
2023/09/18 09:29:32;;;;;;;71.40;13.60;;;22.40;99.90;;;;;;4979299;28;20396;-78
2023/09/18 09:32:16;;;;;;;72.77;14.73;;;22.30;99.90;;;;;;4978049;28;20427;-78
2023/09/18 09:34:43;;;;;;;71.57;14.57;;;22.50;99.90;;;;;;4978247;28;20148;-78
2023/09/18 09:37:09;;;;;;;70.77;12.50;;;22.70;99.90;;;;;;4960783;28;20414;-78
2023/09/18 09:39:35;;;;;;;72.60;11.83;;;22.80;99.90;;;;;;4977708;28;20403;-78
2023/09/18 09:42:03;;;;;;;72.00;12.93;;;22.80;99.90;;;;;;4977824;28;20431;-78
2023/09/18 09:44:32;;;;;;;71.97;11.73;;;22.70;99.90;;;;;;4977706;28;20902;-78
2023/09/18 09:46:59;;;;;;;69.90;11.47;;;22.70;99.90;;;;;;5041767;22;21382;-80
2023/09/18 09:49:27;;;;;;;69.60;10.77;;;22.70;99.90;;;;;;5151555;22;20493;-78
2023/09/18 09:51:54;;;;;;;70.00;11.30;;;22.70;99.90;;;;;;4971641;28;20798;-78
2023/09/18 09:54:39;;;;;;;71.97;11.20;;;22.60;99.90;;;;;;4978219;28;20403;-77
2023/09/18 09:57:05;;;;;;;70.77;10.93;;;22.70;99.90;;;;;;4960756;28;20454;-78
2023/09/18 09:59:33;;;;;;;69.50;11.03;;;22.80;99.90;;;;;;4978950;28;20439;-78
2023/09/18 10:01:59;;;;;;;71.47;10.23;;;22.80;90.40;;;;;;4961182;28;20223;-78
2023/09/18 10:04:28;;;;;;;70.70;9.70;;;22.90;90.70;;;;;;4979009;28;20467;-78
2023/09/18 10:07:05;;;;;;;78.87;10.63;;;22.90;94.50;;;;;;4978713;28;20940;-78
2023/09/18 10:09:35;;;;;;;72.40;9.30;;;22.90;99.90;;;;;;4979034;28;20379;-78
2023/09/18 10:12:04;;;;;;;71.80;10.17;;;23.00;99.90;;;;;;4961694;28;20435;-78
2023/09/18 10:14:32;;;;;;;75.00;7.80;;;23.00;96.00;;;;;;4978750;28;20411;-78
2023/09/18 10:17:10;;;;;;;73.77;8.93;;;23.10;97.30;;;;;;4977816;28;21027;-77
2023/09/18 10:19:59;;;;;;;69.87;7.53;;;23.10;43.70;;;;;;4960159;28;20410;-78
2023/09/18 10:22:37;;;;;;;69.03;5.53;;;23.30;13.60;;;;;;4960587;28;20477;-78
2023/09/18 10:25:17;;;;;;;68.40;5.13;;;23.60;1.00;;;;;;4977744;28;20430;-78
2023/09/18 10:27:49;;;;;;;69.77;4.70;;;23.80;1.00;;;;;;4977636;28;20376;-78
2023/09/18 10:30:18;;;;;;;66.90;2.80;;;24.00;1.00;;;;;;4979219;28;20470;-78
2023/09/18 10:32:48;;;;;;;69.10;2.90;;;24.00;1.00;;;;;;4963401;28;20439;-78
2023/09/18 10:35:14;;;;;;;68.10;3.37;;;23.90;1.00;;;;;;4961757;28;20444;-78
2023/09/18 10:37:43;;;;;;;69.47;3.37;;;24.00;1.00;;;;;;4978772;28;20404;-78
2023/09/18 10:40:10;;;;;;;69.10;3.47;;;24.20;1.00;;;;;;4961425;28;20940;-78
2023/09/18 10:42:39;;;;;;;70.90;3.80;;;24.50;1.00;;;;;;4979186;28;20427;-78
2023/09/18 10:45:07;;;;;;;67.67;3.77;;;24.60;1.00;;;;;;4978069;28;20479;-78
2023/09/18 10:47:34;;;;;;;70.77;4.23;;;24.50;1.00;;;;;;4960581;28;20427;-78
2023/09/18 10:50:00;;;;;;;68.87;5.80;;;24.80;1.00;;;;;;4977859;28;20420;-78
2023/09/18 10:52:27;;;;;;;68.37;4.57;;;24.80;99.90;;;;;;4977149;28;20427;-78
2023/09/18 10:54:53;;;;;;;68.10;4.87;;;24.90;99.90;;;;;;4977065;28;20407;-77
2023/09/18 10:57:19;;;;;;;71.10;4.30;;;24.90;39.90;;;;;;4976216;28;20915;-78
2023/09/18 10:59:45;;;;;;;68.07;3.77;;;25.00;99.90;;;;;;4976127;28;20411;-78
2023/09/18 11:02:15;;;;;;;68.30;3.90;;;25.20;99.90;;;;;;4976030;28;20573;-77
2023/09/18 11:04:42;;;;;;;68.30;4.13;;;25.10;99.90;;;;;;4975812;28;20441;-77
2023/09/18 11:07:09;;;;;;;70.07;5.90;;;25.40;99.90;;;;;;4976508;28;20399;-79
2023/09/18 11:09:44;;;;;;;70.20;8.07;;;25.50;99.90;;;;;;4960060;28;20507;-78
2023/09/18 11:12:11;;;;;;;71.37;7.03;;;25.30;1.00;;;;;;4976906;28;20415;-79
2023/09/18 11:14:54;;;;;;;70.00;8.47;;;25.20;1.00;;;;;;4976831;28;20481;-77
2023/09/18 11:17:33;;;;;;;70.40;10.00;;;25.30;1.00;;;;;;4976046;28;20395;-78
2023/09/18 11:20:23;;;;;;;69.90;7.77;;;25.60;1.00;;;;;;4976697;28;20407;-78
2023/09/18 11:23:12;;;;;;;69.57;8.80;;;25.60;1.00;;;;;;4958468;28;20518;-77
2023/09/18 11:25:41;;;;;;;68.97;8.37;;;25.50;1.00;;;;;;4975931;28;20793;-78
2023/09/18 11:28:14;;;;;;;71.30;7.50;;;25.50;1.00;;;;;;4976350;28;20411;-77
2023/09/18 11:30:58;;;;;;;71.17;8.17;;;25.50;1.00;;;;;;4976129;28;20384;-77
2023/09/18 11:33:44;;;;;;;71.77;8.57;;;25.50;1.00;;;;;;4975836;28;20450;-77
2023/09/18 11:36:18;;;;;;;69.57;6.80;;;25.90;1.00;;;;;;4958288;28;20414;-77
2023/09/18 11:38:55;;;;;;;67.83;6.20;;;26.00;1.00;;;;;;4975604;28;20390;-77
2023/09/18 11:41:25;;;;;;;72.07;7.00;;;25.90;1.00;;;;;;4975463;28;20436;-77
2023/09/18 11:43:51;;;;;;;74.27;6.60;;;25.80;1.00;;;;;;4975233;28;20417;-77
2023/09/18 11:46:20;;;;;;;68.80;5.70;;;26.00;1.00;;;;;;4975129;28;20466;-77
2023/09/18 11:48:50;;;;;;;69.87;4.70;;;26.20;1.00;;;;;;4958041;28;20441;-77
2023/09/18 11:51:22;;;;;;;71.20;4.57;;;25.90;1.00;;;;;;4957643;28;20447;-77
2023/09/18 11:53:52;;;;;;;68.80;5.07;;;25.90;1.00;;;;;;4975028;28;20470;-77
2023/09/18 11:56:21;;;;;;;70.90;4.80;;;26.20;1.00;;;;;;4975352;28;20827;-77
2023/09/18 11:58:48;;;;;;;69.80;4.40;;;26.30;1.00;;;;;;4975385;28;20404;-77
2023/09/18 12:01:17;;;;;;;68.00;4.93;;;26.40;1.00;;;;;;4974840;28;21030;-77
2023/09/18 12:03:43;;;;;;;72.83;4.20;;;26.50;1.00;;;;;;4957898;28;20514;-77
2023/09/18 12:06:12;;;;;;;69.07;4.33;;;26.80;1.00;;;;;;4975213;28;20853;-77
2023/09/18 12:08:39;;;;;;;72.60;5.20;;;26.90;1.00;;;;;;4974873;28;20171;-78
2023/09/18 12:11:06;;;;;;;70.57;5.20;;;26.90;1.00;;;;;;4957061;28;20493;-78
2023/09/18 12:13:32;;;;;;;68.40;4.17;;;27.00;1.00;;;;;;4974954;28;20400;-78
2023/09/18 12:16:01;;;;;;;72.30;4.10;;;26.80;1.00;;;;;;4974708;28;20403;-77
2023/09/18 12:18:38;;;;;;;71.47;4.60;;;26.30;1.00;;;;;;4974963;28;20407;-77
2023/09/18 12:21:06;;;;;;;69.33;4.33;;;26.60;1.00;;;;;;4957289;28;20415;-78
2023/09/18 12:23:43;;;;;;;70.13;4.43;;;26.70;1.00;;;;;;4974711;28;20471;-77
2023/09/18 12:26:14;;;;;;;70.13;4.00;;;26.90;1.00;;;;;;4975073;28;20438;-78
2023/09/18 12:28:44;;;;;;;71.17;4.87;;;27.00;1.00;;;;;;4957270;28;20454;-78
2023/09/18 12:31:14;;;;;;;70.30;5.97;;;27.10;1.00;;;;;;4974512;28;20415;-77
2023/09/18 12:33:41;;;;;;;67.57;3.60;;;26.90;1.00;;;;;;4974790;28;20422;-77
2023/09/18 12:36:08;;;;;;;70.10;3.80;;;26.70;1.00;;;;;;4974409;28;20770;-78